Time;durP1;ratioP1;P1;durP2;ratioP2;P2;SDS_P1;SDS_P2;PMS_P1;PMS_P2;Temp;Humidity;BMP_temperature;BMP_pressure;BME280_temperature;BME280_humidity;BME280_pressure;Samples;Min_cycle;Max_cycle;Signal;HPM_P1;HPM_P2
2022/08/02 00:01:19;;;;;;;8.57;4.03;;;;;;;21.91;49.61;101977.97;4989090;28;20031;-71
2022/08/02 00:03:45;;;;;;;10.65;3.47;;;;;;;21.88;49.26;101981.22;4989438;28;20058;-71
2022/08/02 00:06:10;;;;;;;16.40;3.67;;;;;;;21.72;49.48;101974.88;4989630;28;20034;-72
2022/08/02 00:08:35;;;;;;;9.90;4.15;;;;;;;21.81;49.91;101967.00;4989474;28;20042;-71
2022/08/02 00:11:01;;;;;;;9.63;3.70;;;;;;;21.89;49.54;101969.19;4989459;28;20039;-72
2022/08/02 00:13:26;;;;;;;10.77;3.65;;;;;;;21.90;49.60;101970.00;4990124;28;20050;-71
2022/08/02 00:15:52;;;;;;;8.80;3.35;;;;;;;21.81;49.82;101967.81;4989630;28;20046;-71
2022/08/02 00:18:17;;;;;;;6.05;3.33;;;;;;;21.84;49.78;101959.06;4987457;28;20037;-71
2022/08/02 00:20:42;;;;;;;11.48;5.13;;;;;;;21.87;49.97;101954.13;4989321;28;20042;-72
2022/08/02 00:23:08;;;;;;;8.40;3.58;;;;;;;21.74;50.08;101947.25;4988658;28;20088;-71
2022/08/02 00:25:33;;;;;;;8.25;3.72;;;;;;;21.84;49.83;101941.81;4990126;28;20515;-71
2022/08/02 00:27:59;;;;;;;9.32;3.97;;;;;;;21.91;49.66;101936.06;4989360;28;20026;-70
2022/08/02 00:30:24;;;;;;;11.02;3.72;;;;;;;21.74;50.26;101939.03;4989354;28;20453;-71
2022/08/02 00:32:49;;;;;;;7.07;2.78;;;;;;;21.65;50.00;101941.50;4989607;28;20093;-71
2022/08/02 00:35:15;;;;;;;8.32;3.53;;;;;;;21.64;49.95;101933.56;4989653;28;20053;-73
2022/08/02 00:37:40;;;;;;;6.55;3.58;;;;;;;21.53;49.99;101935.47;4989973;28;20375;-72
2022/08/02 00:40:08;;;;;;;8.18;2.80;;;;;;;21.42;50.25;101931.09;4990112;28;20089;-71
2022/08/02 00:42:33;;;;;;;8.93;2.90;;;;;;;21.41;49.87;101940.38;4993041;28;20042;-71
2022/08/02 00:44:59;;;;;;;13.63;3.22;;;;;;;21.47;49.56;101941.19;4993526;28;20037;-71
2022/08/02 00:47:24;;;;;;;8.15;3.58;;;;;;;21.47;49.43;101952.97;4993199;28;20038;-70
2022/08/02 00:49:49;;;;;;;13.02;4.18;;;;;;;21.42;49.67;101946.66;4993593;28;20034;-71
2022/08/02 00:52:15;;;;;;;5.90;3.60;;;;;;;21.45;49.18;101944.19;4993975;28;20034;-71
2022/08/02 00:54:40;;;;;;;6.75;3.20;;;;;;;21.51;49.11;101945.84;4991882;28;20564;-71
2022/08/02 00:57:06;;;;;;;13.48;3.90;;;;;;;21.48;48.63;101943.66;4993306;28;20073;-72
2022/08/02 00:59:31;;;;;;;7.95;3.60;;;;;;;21.52;49.06;101941.22;4992989;28;20097;-71
2022/08/02 01:01:57;;;;;;;10.27;3.75;;;;;;;21.49;48.58;101937.09;4992843;28;20137;-72
2022/08/02 01:04:22;;;;;;;12.25;3.38;;;;;;;21.50;48.54;101936.00;4992619;28;20038;-71
2022/08/02 01:06:48;;;;;;;14.10;3.33;;;;;;;21.49;48.49;101944.47;4992768;28;20549;-72
2022/08/02 01:09:13;;;;;;;9.88;3.53;;;;;;;21.41;48.40;101942.25;4993196;28;20038;-72
2022/08/02 01:11:38;;;;;;;16.17;4.25;;;;;;;21.49;48.20;101945.31;4993243;28;20037;-71
2022/08/02 01:14:07;;;;;;;7.78;2.78;;;;;;;21.44;48.36;101937.09;4992666;28;20038;-70
2022/08/02 01:16:38;;;;;;;8.98;2.80;;;;;;;21.40;48.12;101937.91;4991861;28;20085;-71
2022/08/02 01:19:25;;;;;;;8.27;3.03;;;;;;;21.39;48.41;101938.97;4991590;28;20097;-71
2022/08/02 01:22:21;;;;;;;6.32;3.10;;;;;;;21.43;48.36;101924.50;4973271;28;20047;-72
2022/08/02 01:25:18;;;;;;;9.82;4.70;;;;;;;21.31;48.70;101932.13;4981221;28;20038;-71
2022/08/02 01:28:18;;;;;;;13.45;3.72;;;;;;;21.33;48.46;101919.00;4992710;28;20046;-71
2022/08/02 01:30:47;;;;;;;9.73;3.53;;;;;;;21.21;48.60;101917.63;4954600;28;20058;-72
2022/08/02 01:33:17;;;;;;;11.38;3.30;;;;;;;21.25;48.73;101915.97;4951095;29;20059;-71
2022/08/02 01:35:48;;;;;;;10.13;2.85;;;;;;;21.25;48.79;101918.72;4951058;28;20041;-71
2022/08/02 01:38:19;;;;;;;10.02;3.17;;;;;;;21.26;49.11;101920.38;4950791;29;20039;-72
2022/08/02 01:40:48;;;;;;;11.90;3.42;;;;;;;21.16;49.07;101912.13;4951124;29;20109;-72
2022/08/02 01:43:16;;;;;;;8.38;3.58;;;;;;;20.98;49.44;101913.41;4950871;29;20162;-71
2022/08/02 01:45:43;;;;;;;9.82;3.30;;;;;;;21.14;49.21;101914.31;4950628;29;20094;-71
2022/08/02 01:48:11;;;;;;;8.63;3.55;;;;;;;21.18;49.20;101912.69;4950490;29;20492;-71
2022/08/02 01:50:37;;;;;;;8.48;3.22;;;;;;;21.00;49.52;101919.44;4949646;29;20093;-72
2022/08/02 01:53:06;;;;;;;9.50;3.65;;;;;;;21.22;48.86;101916.53;4949029;28;20126;-71
2022/08/02 01:55:36;;;;;;;12.00;3.72;;;;;;;21.24;49.05;101915.19;4950095;29;20127;-71
2022/08/02 01:58:04;;;;;;;7.07;3.58;;;;;;;21.00;49.73;101916.69;4949955;29;20511;-71
2022/08/02 02:00:35;;;;;;;12.15;3.95;;;;;;;21.05;49.70;101913.22;4949493;29;20094;-72
2022/08/02 02:03:03;;;;;;;8.93;4.32;;;;;;;21.03;49.23;101904.44;4949388;29;20051;-72
2022/08/02 02:05:31;;;;;;;13.43;4.13;;;;;;;21.02;49.68;101911.00;4949532;29;20076;-71
2022/08/02 02:07:58;;;;;;;8.02;3.95;;;;;;;20.96;49.63;101901.94;4968006;28;20082;-70
2022/08/02 02:10:29;;;;;;;10.88;4.32;;;;;;;20.99;49.49;101906.88;5012015;28;20394;-71
2022/08/02 02:12:59;;;;;;;11.80;4.03;;;;;;;20.99;49.35;101904.13;5011972;28;20037;-71
2022/08/02 02:15:25;;;;;;;12.73;4.03;;;;;;;20.85;49.80;101914.72;5009950;28;20413;-72
2022/08/02 02:17:53;;;;;;;12.48;4.25;;;;;;;20.94;49.31;101906.84;4983532;28;20039;-71
2022/08/02 02:20:20;;;;;;;11.55;4.22;;;;;;;20.88;49.63;101906.00;4972838;28;20523;-71
2022/08/02 02:22:46;;;;;;;9.15;4.00;;;;;;;20.77;50.02;101907.06;4973940;28;20163;-71
2022/08/02 02:25:13;;;;;;;9.45;3.97;;;;;;;20.79;49.85;101901.31;4972840;28;20046;-74
2022/08/02 02:27:57;;;;;;;9.65;4.50;;;;;;;20.81;49.84;101880.81;4973037;28;20035;-72
2022/08/02 02:30:25;;;;;;;12.07;3.83;;;;;;;20.85;50.17;101875.66;4973130;28;20050;-72
2022/08/02 02:32:56;;;;;;;11.65;4.20;;;;;;;20.91;49.78;101871.88;4972114;28;20089;-71
2022/08/02 02:35:26;;;;;;;10.55;4.93;;;;;;;20.74;50.42;101865.78;4972464;28;20093;-72
2022/08/02 02:37:55;;;;;;;14.05;4.03;;;;;;;20.55;51.07;101868.16;4971250;28;20134;-71
2022/08/02 02:40:22;;;;;;;10.70;4.13;;;;;;;20.65;50.73;101854.56;4972435;28;20495;-71
2022/08/02 02:42:50;;;;;;;9.98;3.85;;;;;;;20.55;51.41;101859.16;4971265;28;20070;-71
2022/08/02 02:45:17;;;;;;;11.85;4.28;;;;;;;20.78;50.44;101862.25;4971485;28;20042;-72
2022/08/02 02:47:43;;;;;;;6.05;3.75;;;;;;;20.84;50.10;101861.19;4971280;28;20030;-71
2022/08/02 02:50:10;;;;;;;10.90;4.00;;;;;;;20.79;50.23;101855.72;4971522;28;20041;-71
2022/08/02 02:52:38;;;;;;;14.18;4.78;;;;;;;20.76;50.49;101850.75;4971791;28;20033;-71
2022/08/02 02:55:05;;;;;;;10.35;4.32;;;;;;;20.65;50.16;101851.81;4971314;28;20061;-71
2022/08/02 02:57:32;;;;;;;10.15;3.63;;;;;;;20.88;50.22;101859.56;4971430;28;20475;-70
2022/08/02 02:59:58;;;;;;;11.48;3.80;;;;;;;20.89;49.82;101863.13;4970866;28;20058;-70
2022/08/02 03:02:23;;;;;;;18.80;4.53;;;;;;;20.77;49.88;101857.06;4971536;28;20047;-70
2022/08/02 03:04:50;;;;;;;9.23;4.03;;;;;;;20.78;50.07;101864.97;4970507;28;20034;-71
2022/08/02 03:07:16;;;;;;;12.10;4.75;;;;;;;20.87;49.57;101865.28;4971751;28;20077;-71
2022/08/02 03:09:42;;;;;;;13.55;4.72;;;;;;;20.85;49.70;101862.81;4970953;28;20114;-71
2022/08/02 03:12:08;;;;;;;10.88;3.60;;;;;;;20.80;50.36;101857.34;4970183;28;20058;-71
2022/08/02 03:14:38;;;;;;;11.25;4.45;;;;;;;20.73;50.19;101855.94;4970916;28;20074;-71
2022/08/02 03:17:04;;;;;;;13.07;4.20;;;;;;;20.74;50.39;101854.84;4975207;28;20045;-71
2022/08/02 03:19:29;;;;;;;8.82;3.97;;;;;;;20.84;49.95;101852.16;5005641;28;20023;-71
2022/08/02 03:21:55;;;;;;;7.90;3.78;;;;;;;20.49;51.01;101849.28;4990363;28;20089;-70
2022/08/02 03:24:20;;;;;;;11.50;4.95;;;;;;;20.73;50.52;101843.13;4990376;28;20590;-71
2022/08/02 03:26:46;;;;;;;11.75;4.28;;;;;;;20.71;50.24;101856.22;4990346;28;20034;-72
2022/08/02 03:29:11;;;;;;;7.63;4.03;;;;;;;20.66;50.58;101839.78;4990180;28;20054;-70
2022/08/02 03:31:40;;;;;;;13.85;4.88;;;;;;;20.71;50.46;101841.75;4990638;28;20455;-70
2022/08/02 03:34:05;;;;;;;12.80;4.53;;;;;;;20.60;50.61;101834.59;4989964;28;20387;-71
2022/08/02 03:36:33;;;;;;;9.82;4.30;;;;;;;20.65;50.46;101842.81;4989853;28;20034;-71
2022/08/02 03:39:01;;;;;;;9.10;4.32;;;;;;;20.81;49.95;101828.91;4990122;28;20046;-71
2022/08/02 03:41:28;;;;;;;11.48;4.60;;;;;;;20.70;50.10;101829.16;4990053;28;20038;-72
2022/08/02 03:43:54;;;;;;;10.40;4.65;;;;;;;20.73;50.36;101832.19;4990007;28;20117;-70
2022/08/02 03:46:22;;;;;;;15.20;4.25;;;;;;;20.58;50.47;101834.84;4990845;28;20026;-71
2022/08/02 03:48:49;;;;;;;8.80;4.18;;;;;;;20.60;50.72;101837.34;4989737;28;20026;-72
2022/08/02 03:51:15;;;;;;;17.17;5.63;;;;;;;20.52;50.58;101835.91;4989827;28;20038;-71
2022/08/02 03:53:41;;;;;;;8.40;4.22;;;;;;;20.51;50.70;101831.56;4989768;28;20039;-70
2022/08/02 03:56:09;;;;;;;10.45;4.43;;;;;;;20.71;50.28;101828.06;4989528;28;20121;-71
2022/08/02 03:58:34;;;;;;;10.30;4.00;;;;;;;20.69;50.40;101830.25;4988688;28;20104;-71
2022/08/02 04:01:00;;;;;;;7.95;4.00;;;;;;;20.71;50.32;101833.53;4986223;28;20042;-71
2022/08/02 04:03:25;;;;;;;11.40;4.85;;;;;;;20.56;51.05;101828.81;4969964;28;20042;-70
2022/08/02 04:05:51;;;;;;;15.95;4.68;;;;;;;20.56;50.69;101817.09;4974166;28;20109;-71
2022/08/02 04:08:17;;;;;;;11.15;4.80;;;;;;;20.57;50.98;101805.91;4982052;28;20070;-71
2022/08/02 04:13:32;;;;;;;16.10;5.40;;;;;;;20.46;50.68;101808.88;4957276;28;20060;-71
2022/08/02 04:16:14;;;;;;;9.85;4.25;;;;;;;20.62;50.37;101813.28;4978231;28;20407;-71
2022/08/02 04:18:48;;;;;;;13.60;4.80;;;;;;;20.73;50.10;101817.69;5000109;28;20521;-73
2022/08/02 04:21:18;;;;;;;18.42;4.82;;;;;;;20.62;50.35;101824.19;4990044;28;20035;-71
2022/08/02 04:23:46;;;;;;;7.13;4.25;;;;;;;20.71;50.56;101822.59;4989436;28;20042;-71
2022/08/02 04:26:12;;;;;;;13.65;4.40;;;;;;;20.75;50.16;101823.72;4989360;28;20038;-70
2022/08/02 04:28:39;;;;;;;12.23;4.45;;;;;;;20.82;49.90;101827.84;4989974;28;20074;-70
2022/08/02 04:31:05;;;;;;;10.43;4.75;;;;;;;20.81;49.88;101828.09;4989372;28;20066;-70
2022/08/02 04:33:31;;;;;;;12.80;4.70;;;;;;;20.77;49.93;101837.94;4989347;28;20108;-71
2022/08/02 04:35:57;;;;;;;13.57;4.63;;;;;;;20.86;50.18;101842.59;4989287;28;20442;-70
2022/08/02 04:38:23;;;;;;;10.77;4.55;;;;;;;20.82;50.25;101835.19;4989791;28;20038;-70
2022/08/02 04:40:54;;;;;;;9.60;4.40;;;;;;;20.90;49.99;101840.16;4989719;28;20133;-69
2022/08/02 04:43:20;;;;;;;;;;;;;;;20.99;49.91;101841.28;4991105;28;20046;-71
2022/08/02 04:45:50;;;;;;;16.35;5.40;;;;;;;21.03;49.75;101844.31;4989180;28;20478;-71
2022/08/02 04:48:16;;;;;;;13.80;5.18;;;;;;;21.06;49.74;101836.41;4989192;28;20038;-71
2022/08/02 04:50:41;;;;;;;12.15;4.88;;;;;;;20.90;50.62;101834.69;4989220;28;20038;-71
2022/08/02 04:53:07;;;;;;;12.18;5.30;;;;;;;20.82;51.92;101829.75;4989151;28;20053;-71
2022/08/02 04:55:32;;;;;;;10.65;4.93;;;;;;;20.94;50.79;101819.38;4989614;28;20030;-71
2022/08/02 04:57:58;;;;;;;18.92;6.20;;;;;;;20.86;51.55;101815.28;4989218;28;20462;-70
2022/08/02 05:00:24;;;;;;;21.92;7.10;;;;;;;20.92;51.28;101813.38;4989552;28;20093;-71
2022/08/02 05:02:51;;;;;;;16.45;5.65;;;;;;;20.67;51.84;101807.84;4988978;28;20057;-71
2022/08/02 05:05:17;;;;;;;11.68;4.80;;;;;;;20.95;50.98;101807.38;4987769;28;20034;-71
2022/08/02 05:07:42;;;;;;;14.57;6.28;;;;;;;21.01;50.29;101822.72;4989304;28;20112;-71
2022/08/02 05:10:08;;;;;;;13.82;5.88;;;;;;;21.16;50.65;101814.53;4989003;28;20066;-72
2022/08/02 05:12:33;;;;;;;10.07;4.53;;;;;;;21.22;50.27;101818.09;4989144;28;20681;-70
2022/08/02 05:14:59;;;;;;;14.57;4.95;;;;;;;21.29;49.60;101819.47;4988899;28;20403;-71
2022/08/02 05:17:24;;;;;;;16.50;5.80;;;;;;;21.38;49.76;101825.22;4988952;28;20042;-70
2022/08/02 05:19:49;;;;;;;17.63;5.38;;;;;;;21.27;49.95;101831.75;4989624;28;20022;-73
2022/08/02 05:22:15;;;;;;;14.68;5.13;;;;;;;21.47;49.84;101820.84;4989478;28;20463;-71
2022/08/02 05:24:40;;;;;;;18.70;5.80;;;;;;;21.43;50.30;101809.63;4989080;28;20046;-72
2022/08/02 05:27:06;;;;;;;11.50;5.05;;;;;;;21.51;50.18;101806.34;4989364;28;20045;-72
2022/08/02 05:29:31;;;;;;;12.23;4.90;;;;;;;21.56;50.11;101802.81;4992276;28;20066;-73
2022/08/02 05:31:56;;;;;;;17.80;4.55;;;;;;;21.41;50.82;101806.34;4992515;28;20076;-70
2022/08/02 05:34:22;;;;;;;14.73;5.55;;;;;;;21.69;50.13;101804.97;4993154;28;20038;-70
2022/08/02 05:36:47;;;;;;;12.00;4.70;;;;;;;21.73;49.98;101806.06;4996208;28;20548;-70
2022/08/02 05:39:13;;;;;;;10.18;4.90;;;;;;;21.74;49.80;101818.63;5011460;28;21098;-71
2022/08/02 05:41:38;;;;;;;6.82;4.25;;;;;;;21.58;50.83;101825.22;5011670;28;20034;-70
2022/08/02 05:44:03;;;;;;;6.88;5.05;;;;;;;21.51;50.33;101828.22;5011770;28;20029;-72
2022/08/02 05:46:29;;;;;;;18.75;5.00;;;;;;;21.63;50.85;101815.09;5012349;28;20034;-72
2022/08/02 05:48:54;;;;;;;8.73;4.75;;;;;;;21.57;51.41;101812.63;5011283;28;20049;-71
2022/08/02 05:51:27;;;;;;;20.02;4.88;;;;;;;21.62;50.63;101818.91;5011317;28;20418;-72
2022/08/02 05:54:09;;;;;;;10.50;6.07;;;;;;;21.88;49.88;101806.06;5007968;28;20026;-71
2022/08/02 05:56:46;;;;;;;16.15;5.15;;;;;;;22.10;49.52;101797.53;5008111;28;20030;-71
2022/08/02 05:59:35;;;;;;;11.18;5.20;;;;;;;22.04;49.52;101807.66;5007312;28;20054;-71
2022/08/02 06:02:41;;;;;;;11.48;5.00;;;;;;;22.06;50.03;101800.00;5007506;28;20095;-71
2022/08/02 06:05:12;;;;;;;7.53;3.97;;;;;;;22.14;49.64;101802.16;5011120;28;20477;-72
2022/08/02 06:07:42;;;;;;;7.10;4.43;;;;;;;22.31;49.17;101802.66;5011803;28;20026;-70
2022/08/02 06:10:12;;;;;;;9.70;4.30;;;;;;;22.42;49.36;101806.19;4991806;28;20054;-72
2022/08/02 06:13:00;;;;;;;13.68;5.75;;;;;;;22.51;49.76;101813.53;5003131;28;20042;-72
2022/08/02 06:15:26;;;;;;;10.50;4.90;;;;;;;22.58;49.12;101811.31;5005472;28;20077;-72
2022/08/02 06:17:51;;;;;;;10.55;4.60;;;;;;;22.55;49.31;101809.13;4991653;28;20096;-71
2022/08/02 06:20:19;;;;;;;11.23;4.50;;;;;;;22.77;48.65;101802.47;4991273;28;20109;-72
2022/08/02 06:22:45;;;;;;;9.68;4.05;;;;;;;22.59;48.65;101806.66;4992070;28;20479;-70
2022/08/02 06:25:12;;;;;;;11.10;4.85;;;;;;;22.81;48.56;101803.53;4991493;28;20069;-71
2022/08/02 06:27:39;;;;;;;8.65;4.45;;;;;;;22.62;49.28;101801.44;5008969;28;20111;-71
2022/08/02 06:30:06;;;;;;;12.00;4.15;;;;;;;22.79;48.55;101801.09;5011204;28;20483;-71
2022/08/02 06:32:33;;;;;;;9.07;5.18;;;;;;;22.96;48.42;101812.47;5010839;28;20049;-70
2022/08/02 06:34:58;;;;;;;12.18;5.15;;;;;;;22.92;48.35;101805.13;5009263;28;20473;-71
2022/08/02 06:37:39;;;;;;;10.98;5.43;;;;;;;23.19;48.04;101808.22;5011202;28;20034;-72
2022/08/02 06:40:24;;;;;;;14.57;6.25;;;;;;;23.11;48.57;101798.69;5010409;28;20041;-72
2022/08/02 06:43:11;;;;;;;6.55;4.18;;;;;;;23.15;48.29;101794.28;5010766;28;20046;-72
2022/08/02 06:45:37;;;;;;;6.97;5.03;;;;;;;23.17;48.07;101792.06;5010572;28;20026;-71
2022/08/02 06:48:03;;;;;;;8.77;4.50;;;;;;;23.38;48.31;101790.00;5010263;28;20060;-72
2022/08/02 06:50:29;;;;;;;14.55;4.85;;;;;;;23.41;47.90;101790.22;4998257;28;20085;-71
2022/08/02 06:52:54;;;;;;;9.48;4.93;;;;;;;23.56;48.13;101794.78;4990682;28;20026;-71
2022/08/02 06:55:20;;;;;;;11.45;5.30;;;;;;;23.47;47.89;101789.09;4992163;28;20037;-72
2022/08/02 06:57:45;;;;;;;8.63;3.65;;;;;;;23.69;47.45;101776.81;4989787;28;20454;-72
2022/08/02 07:00:11;;;;;;;8.88;4.40;;;;;;;23.88;46.59;101770.28;4990862;28;20038;-72
2022/08/02 07:02:38;;;;;;;14.05;4.47;;;;;;;23.83;46.64;101769.53;4990570;28;20517;-71
2022/08/02 07:05:05;;;;;;;10.95;3.80;;;;;;;23.96;46.35;101769.66;4990586;28;20448;-74
2022/08/02 07:07:30;;;;;;;10.82;3.63;;;;;;;23.97;46.60;101763.06;5005657;28;20034;-72
2022/08/02 07:09:57;;;;;;;14.07;3.70;;;;;;;24.25;46.01;101766.88;5009739;28;20041;-72
2022/08/02 07:12:23;;;;;;;10.15;3.97;;;;;;;24.01;46.43;101763.28;5004777;28;20096;-73
2022/08/02 07:14:48;;;;;;;8.50;4.32;;;;;;;24.60;45.40;101765.59;5009054;28;20469;-73
2022/08/02 07:17:14;;;;;;;9.60;3.40;;;;;;;24.57;46.11;101757.94;5006572;28;20085;-72
2022/08/02 07:19:39;;;;;;;9.27;3.88;;;;;;;24.56;46.01;101753.53;5007942;28;20454;-72
2022/08/02 07:22:04;;;;;;;7.10;4.18;;;;;;;24.63;45.96;101748.50;5009130;28;20053;-72
2022/08/02 07:24:30;;;;;;;13.15;4.40;;;;;;;24.59;45.88;101741.97;5009429;28;20102;-71
2022/08/02 07:26:57;;;;;;;11.25;4.65;;;;;;;24.99;45.19;101739.44;5009228;28;20394;-72
2022/08/02 07:29:22;;;;;;;11.55;3.60;;;;;;;25.17;45.24;101740.53;5009608;28;20069;-72
2022/08/02 07:31:48;;;;;;;9.25;3.58;;;;;;;25.34;45.12;101743.53;5009341;28;20041;-70
2022/08/02 07:34:13;;;;;;;6.50;3.40;;;;;;;25.33;45.12;101735.59;5009761;28;20038;-73
2022/08/02 07:36:38;;;;;;;7.30;3.65;;;;;;;25.51;44.63;101732.00;5009331;28;20026;-73
2022/08/02 07:39:04;;;;;;;8.25;3.63;;;;;;;25.58;44.83;101735.97;5009197;28;20552;-72
2022/08/02 07:41:29;;;;;;;9.13;3.88;;;;;;;25.17;45.75;101732.28;5009172;28;20041;-72
2022/08/02 07:43:55;;;;;;;12.65;4.03;;;;;;;25.63;44.74;101733.13;5009186;28;20036;-72
2022/08/02 07:46:20;;;;;;;10.82;4.13;;;;;;;25.84;44.35;101734.38;5009949;28;20010;-73
2022/08/02 07:48:47;;;;;;;13.02;4.07;;;;;;;25.52;44.62;101731.69;5009376;28;20041;-72
2022/08/02 07:51:12;;;;;;;14.00;4.80;;;;;;;25.75;44.13;101729.91;4990361;28;20037;-72
2022/08/02 07:53:38;;;;;;;7.88;3.60;;;;;;;25.95;43.77;101732.22;4981731;28;20030;-74
2022/08/02 07:56:03;;;;;;;12.13;3.97;;;;;;;26.20;43.49;101725.41;4982448;28;20046;-72
2022/08/02 07:58:29;;;;;;;13.63;5.13;;;;;;;26.27;43.44;101726.63;4982280;28;20083;-74
2022/08/02 08:00:54;;;;;;;7.90;4.05;;;;;;;26.30;43.26;101717.72;5001945;28;20382;-75
2022/08/02 08:03:19;;;;;;;8.73;3.72;;;;;;;26.59;42.90;101723.72;5009527;28;20046;-72
2022/08/02 08:05:45;;;;;;;11.73;4.30;;;;;;;26.75;42.47;101721.44;5009127;28;20048;-71
2022/08/02 08:08:11;;;;;;;7.68;3.90;;;;;;;26.60;42.53;101714.31;5009184;28;20033;-73
2022/08/02 08:10:36;;;;;;;9.05;3.83;;;;;;;26.76;42.42;101712.84;5009604;28;20037;-73
2022/08/02 08:13:01;;;;;;;16.50;4.35;;;;;;;26.59;43.16;101709.94;5009172;28;20046;-73
2022/08/02 08:15:27;;;;;;;12.23;3.95;;;;;;;26.86;42.74;101696.06;5005409;28;20505;-74
2022/08/02 08:17:52;;;;;;;11.63;3.42;;;;;;;26.96;42.38;101706.03;4995503;28;20529;-72
2022/08/02 08:20:18;;;;;;;12.23;3.90;;;;;;;27.11;42.19;101708.38;4988880;28;20031;-71
2022/08/02 08:22:43;;;;;;;10.50;3.38;;;;;;;27.05;42.14;101698.59;5004633;28;20062;-71
2022/08/02 08:25:08;;;;;;;8.88;3.45;;;;;;;27.40;40.79;101694.94;4989635;28;20053;-73
2022/08/02 08:27:34;;;;;;;7.38;2.75;;;;;;;27.23;40.88;101688.50;4989330;28;20069;-72
2022/08/02 08:30:00;;;;;;;8.98;2.72;;;;;;;27.38;40.19;101693.66;4989393;28;20368;-71
2022/08/02 08:32:25;;;;;;;8.07;2.90;;;;;;;27.41;40.46;101696.59;4989306;28;20371;-71
2022/08/02 08:34:51;;;;;;;7.90;2.97;;;;;;;27.42;40.03;101698.22;4989276;28;20089;-72
2022/08/02 08:37:17;;;;;;;8.27;3.15;;;;;;;27.41;39.75;101684.72;4989611;28;20474;-72
2022/08/02 08:39:43;;;;;;;8.23;2.72;;;;;;;27.52;39.79;101686.88;5004250;28;20151;-73
2022/08/02 08:42:08;;;;;;;11.20;3.53;;;;;;;27.31;39.66;101688.53;4989174;28;20074;-71
2022/08/02 08:44:36;;;;;;;5.85;2.13;;;;;;;27.71;39.10;101686.66;4989465;28;20502;-70
2022/08/02 08:47:03;;;;;;;4.93;2.22;;;;;;;27.88;38.88;101672.06;4989523;28;20022;-71
2022/08/02 08:49:39;;;;;;;4.97;2.70;;;;;;;27.79;38.46;101674.81;5005866;28;20030;-70
2022/08/02 08:52:05;;;;;;;8.15;2.83;;;;;;;28.49;37.74;101677.41;5005214;28;20037;-71
2022/08/02 08:54:33;;;;;;;6.03;2.53;;;;;;;28.17;38.14;101669.56;5008504;28;20062;-72
2022/08/02 08:56:59;;;;;;;5.80;2.30;;;;;;;28.25;38.39;101674.28;5001858;28;20120;-72
2022/08/02 08:59:25;;;;;;;5.05;2.28;;;;;;;28.42;38.67;101680.66;5007881;28;20068;-72
2022/08/02 09:01:51;;;;;;;10.00;3.17;;;;;;;28.64;37.86;101676.94;5007998;28;20065;-70
2022/08/02 09:04:18;;;;;;;8.55;3.10;;;;;;;28.51;37.61;101678.72;5006838;28;20034;-70
2022/08/02 09:06:43;;;;;;;7.85;2.60;;;;;;;28.65;38.53;101673.06;5011718;28;20092;-71
2022/08/02 09:09:09;;;;;;;5.53;2.33;;;;;;;28.99;37.59;101666.66;5011712;28;20038;-72
2022/08/02 09:11:34;;;;;;;6.45;2.92;;;;;;;28.76;37.75;101677.09;5011358;28;20038;-71
2022/08/02 09:14:01;;;;;;;7.05;2.55;;;;;;;28.91;36.99;101668.31;5011704;28;20041;-72
2022/08/02 09:16:31;;;;;;;6.07;2.40;;;;;;;29.21;36.75;101674.75;5008553;28;20485;-71
2022/08/02 09:18:57;;;;;;;5.88;3.28;;;;;;;28.64;38.04;101672.22;5010608;28;20049;-71
2022/08/02 09:21:22;;;;;;;6.18;2.30;;;;;;;28.86;37.98;101662.09;5010260;28;20038;-70
2022/08/02 09:23:51;;;;;;;9.77;2.67;;;;;;;29.25;37.08;101662.72;5012127;28;20121;-71
2022/08/02 09:26:18;;;;;;;11.52;2.75;;;;;;;29.62;36.27;101674.94;5011985;28;20112;-71
2022/08/02 09:28:47;;;;;;;9.18;3.30;;;;;;;29.72;36.73;101668.28;5013107;28;20032;-71
2022/08/02 09:31:13;;;;;;;10.50;2.55;;;;;;;29.99;36.03;101660.28;5011746;28;20672;-71
2022/08/02 09:33:40;;;;;;;12.68;2.72;;;;;;;29.96;36.46;101658.16;5011841;28;20033;-71
2022/08/02 09:36:08;;;;;;;7.28;2.55;;;;;;;30.18;36.25;101654.28;5012441;28;20556;-71
2022/08/02 09:38:35;;;;;;;5.47;2.00;;;;;;;29.87;37.20;101662.97;5012010;28;20053;-70
2022/08/02 09:41:03;;;;;;;7.82;2.35;;;;;;;30.24;36.92;101650.97;5011781;28;20072;-70
2022/08/02 09:43:38;;;;;;;3.28;1.35;;;;;;;29.99;36.58;101651.97;5012372;28;20041;-70
2022/08/02 09:46:16;;;;;;;2.50;1.65;;;;;;;30.20;36.68;101649.19;5004580;28;20096;-71
2022/08/02 09:48:49;;;;;;;4.95;1.80;;;;;;;30.02;36.01;101637.44;5007004;28;20050;-71
2022/08/02 09:51:23;;;;;;;4.15;1.40;;;;;;;30.26;34.06;101650.63;5009410;28;20037;-73
2022/08/02 09:53:51;;;;;;;1.42;1.00;;;;;;;30.31;32.65;101642.94;5011941;28;20065;-71
2022/08/02 09:56:19;;;;;;;4.43;1.35;;;;;;;30.64;31.52;101650.50;5011074;28;20046;-72
2022/08/02 09:58:44;;;;;;;1.10;0.90;;;;;;;29.27;34.15;101646.56;5011479;28;20125;-69
2022/08/02 10:01:10;;;;;;;3.95;1.13;;;;;;;29.36;32.51;101643.78;5010968;28;20466;-71
2022/08/02 10:03:35;;;;;;;4.15;1.10;;;;;;;29.57;32.17;101650.19;5010845;28;20853;-73
2022/08/02 10:06:03;;;;;;;11.70;1.20;;;;;;;30.27;31.31;101643.91;5009388;28;20108;-70
2022/08/02 10:08:29;;;;;;;1.92;1.00;;;;;;;29.71;31.87;101656.38;5010528;28;20034;-70
2022/08/02 10:11:00;;;;;;;3.92;0.93;;;;;;;30.41;31.49;101654.81;5010514;28;20029;-71
2022/08/02 10:13:34;;;;;;;3.92;1.02;;;;;;;30.52;31.62;101656.00;5003415;28;20378;-71
2022/08/02 10:16:01;;;;;;;1.25;0.77;;;;;;;30.36;32.27;101652.22;4991621;28;20134;-71
2022/08/02 10:18:27;;;;;;;2.40;1.13;;;;;;;30.44;32.57;101648.56;4991432;28;20049;-71
2022/08/02 10:20:55;;;;;;;2.53;1.17;;;;;;;30.72;32.38;101660.72;4987340;28;20399;-70
2022/08/02 10:23:24;;;;;;;1.58;1.00;;;;;;;30.44;33.14;101654.94;4991781;28;20398;-70
2022/08/02 10:25:52;;;;;;;2.28;1.30;;;;;;;30.43;33.39;101661.59;4985780;28;20049;-70
2022/08/02 10:28:30;;;;;;;6.15;2.13;;;;;;;30.42;33.44;101645.31;4984314;28;20463;-70
2022/08/02 10:30:58;;;;;;;3.22;2.08;;;;;;;30.83;33.29;101654.44;4989019;28;20042;-69
2022/08/02 10:33:26;;;;;;;1.88;1.42;;;;;;;30.80;33.03;101659.84;4987792;28;20061;-69
2022/08/02 10:35:56;;;;;;;4.10;1.80;;;;;;;30.84;32.90;101650.50;4986840;28;20034;-70
2022/08/02 10:38:22;;;;;;;4.05;2.03;;;;;;;29.86;34.62;101653.00;4988642;28;20348;-70
2022/08/02 10:40:54;;;;;;;4.88;1.85;;;;;;;29.51;35.71;101651.53;4995933;28;20037;-70
2022/08/02 10:43:35;;;;;;;4.68;1.73;;;;;;;29.88;35.05;101658.22;4983200;28;20048;-70
2022/08/02 10:46:31;;;;;;;4.53;2.90;;;;;;;30.08;35.07;101652.72;4984817;28;20070;-71
2022/08/02 10:49:13;;;;;;;5.78;2.80;;;;;;;30.00;35.61;101647.22;4984276;28;20071;-69
2022/08/02 10:51:53;;;;;;;4.07;2.28;;;;;;;30.45;34.71;101650.97;4977320;28;20046;-72
2022/08/02 10:54:19;;;;;;;;;;;;;;;30.59;34.91;101647.94;4980376;28;20131;-71
2022/08/02 10:56:46;;;;;;;11.13;3.00;;;;;;;30.92;33.93;101666.25;4971461;28;19922;-71
2022/08/02 10:59:32;;;;;;;3.58;2.20;;;;;;;29.88;35.76;101655.44;4967948;28;20499;-69
2022/08/02 11:02:02;;;;;;;2.78;1.88;;;;;;;31.01;34.39;101655.06;4967954;28;20042;-72
2022/08/02 11:04:32;;;;;;;6.20;2.45;;;;;;;30.61;35.46;101657.53;4968643;28;20093;-72
2022/08/02 11:07:13;;;;;;;5.73;2.40;;;;;;;31.70;33.35;101661.47;4968418;28;20113;-72
2022/08/02 11:09:40;;;;;;;6.57;2.30;;;;;;;31.41;33.62;101656.09;4966731;28;20491;-71
2022/08/02 11:12:07;;;;;;;5.45;2.00;;;;;;;31.43;33.53;101664.09;4987286;28;20042;-71
2022/08/02 11:14:38;;;;;;;4.28;1.73;;;;;;;29.94;35.80;101667.97;4987454;28;20042;-70
2022/08/02 11:17:04;;;;;;;3.53;1.85;;;;;;;30.50;34.50;101663.84;4974517;28;20041;-71
2022/08/02 11:19:32;;;;;;;2.28;1.40;;;;;;;30.58;34.71;101657.41;5001549;28;20137;-71
2022/08/02 11:22:10;;;;;;;2.80;1.90;;;;;;;30.56;34.48;101654.16;4999871;28;20125;-71
2022/08/02 11:24:39;;;;;;;2.30;1.60;;;;;;;30.14;35.01;101650.56;5003149;28;20034;-70
2022/08/02 11:27:07;;;;;;;2.23;1.40;;;;;;;30.85;33.63;101657.69;5001523;28;20064;-70
2022/08/02 11:29:40;;;;;;;1.83;1.38;;;;;;;31.33;33.07;101654.19;5005511;28;20038;-71